T7ZEM CYYQ-KASE
Flight info
| Callsign | T7ZEM |
|---|---|
| Flight time | N/A |
| Altitude | 29000 |
| Route | 54N092W/N0304F280 DCT OMVEG/N0305F290 DCT OMVEG Q906 AGLIN/N0306F300 Q924 DLH J21 GEP J114 DVV J154 AVVVS Q114 BULDG |
| Aircraft | TBM8/L-SDFGRWY/S |
Departure
| Time | 2026-04-23 14:20 |
|---|---|
| Airport | Churchill Airport (CYYQ) |
Arrival
| Time | N/A |
|---|---|
| Airport | Aspen-Pitkin County Airport (Sardy Field) (KASE) |
| Time | Latitude | Longitude | Altitude | Speed | Heading |
|---|---|---|---|---|---|
| 2026-04-23 14:11 | 58.74769 | -94.07487 | 58 ft | 0 kts | 243° |
| 2026-04-23 14:18 | 58.74766 | -94.07494 | 60 ft | 0 kts | 214° |
| 2026-04-23 14:18 | 58.74759 | -94.07497 | 61 ft | 5 kts | 177° |
| 2026-04-23 14:18 | 58.74705 | -94.07460 | 66 ft | 10 kts | 156° |
| 2026-04-23 14:18 | 58.74649 | -94.07418 | 68 ft | 8 kts | 164° |
| 2026-04-23 14:19 | 58.74607 | -94.07420 | 69 ft | 5 kts | 194° |
| 2026-04-23 14:19 | 58.74584 | -94.07431 | 69 ft | 3 kts | 196° |
| 2026-04-23 14:19 | 58.74546 | -94.07518 | 70 ft | 15 kts | 242° |
| 2026-04-23 14:19 | 58.74455 | -94.07653 | 71 ft | 19 kts | 161° |
| 2026-04-23 14:20 | 58.74200 | -94.07405 | 67 ft | 69 kts | 154° |
| 2026-04-23 14:20 | 58.73617 | -94.06908 | 176 ft | 107 kts | 159° |
| 2026-04-23 14:20 | 58.72849 | -94.06343 | 395 ft | 128 kts | 146° |
| 2026-04-23 14:20 | 58.71991 | -94.05830 | 884 ft | 136 kts | 169° |
| 2026-04-23 14:21 | 58.71055 | -94.05727 | 1486 ft | 133 kts | 162° |
| 2026-04-23 14:21 | 58.70156 | -94.05453 | 2075 ft | 129 kts | 159° |
| 2026-04-23 14:21 | 58.69282 | -94.05181 | 2658 ft | 127 kts | 159° |
| 2026-04-23 14:21 | 58.68408 | -94.04902 | 3159 ft | 128 kts | 159° |
| 2026-04-23 14:22 | 58.67519 | -94.04621 | 3688 ft | 130 kts | 160° |
| 2026-04-23 14:22 | 58.66625 | -94.04344 | 4207 ft | 130 kts | 160° |
| 2026-04-23 14:22 | 58.65731 | -94.04069 | 4742 ft | 130 kts | 161° |
| 2026-04-23 14:22 | 58.64835 | -94.03791 | 5269 ft | 131 kts | 161° |
| 2026-04-23 14:23 | 58.63942 | -94.03514 | 5746 ft | 133 kts | 162° |
| 2026-04-23 14:23 | 58.63025 | -94.03231 | 6234 ft | 134 kts | 162° |
| 2026-04-23 14:23 | 58.62099 | -94.02944 | 6721 ft | 136 kts | 163° |
| 2026-04-23 14:23 | 58.61159 | -94.02654 | 7183 ft | 138 kts | 163° |
| 2026-04-23 14:24 | 58.60207 | -94.02362 | 7641 ft | 139 kts | 164° |
| 2026-04-23 14:24 | 58.59251 | -94.02066 | 8097 ft | 140 kts | 164° |
| 2026-04-23 14:24 | 58.58284 | -94.01768 | 8556 ft | 141 kts | 165° |
| 2026-04-23 14:24 | 58.57308 | -94.01468 | 9017 ft | 143 kts | 165° |
| 2026-04-23 14:25 | 58.56323 | -94.01164 | 9473 ft | 144 kts | 165° |
| 2026-04-23 14:25 | 58.55341 | -94.00862 | 9927 ft | 146 kts | 166° |
| 2026-04-23 14:25 | 58.54337 | -94.00554 | 10378 ft | 147 kts | 166° |
| 2026-04-23 14:25 | 58.53326 | -94.00243 | 10791 ft | 148 kts | 166° |
| 2026-04-23 14:26 | 58.52308 | -93.99929 | 11204 ft | 149 kts | 166° |
| 2026-04-23 14:26 | 58.51284 | -93.99615 | 11624 ft | 149 kts | 166° |
| 2026-04-23 14:26 | 58.50255 | -93.99298 | 12038 ft | 150 kts | 167° |
| 2026-04-23 14:26 | 58.49233 | -93.98985 | 12453 ft | 151 kts | 167° |
| 2026-04-23 14:27 | 58.48179 | -93.98663 | 12878 ft | 152 kts | 167° |
| 2026-04-23 14:27 | 58.47144 | -93.98344 | 13283 ft | 153 kts | 167° |
| 2026-04-23 14:27 | 58.46090 | -93.98021 | 13703 ft | 154 kts | 167° |
| 2026-04-23 14:27 | 58.45026 | -93.97696 | 14119 ft | 155 kts | 168° |
| 2026-04-23 14:28 | 58.43956 | -93.97369 | 14507 ft | 156 kts | 168° |
| 2026-04-23 14:28 | 58.42879 | -93.97040 | 14864 ft | 157 kts | 169° |
| 2026-04-23 14:28 | 58.41802 | -93.96712 | 15255 ft | 156 kts | 170° |
| 2026-04-23 14:28 | 58.40714 | -93.96380 | 15566 ft | 161 kts | 170° |
| 2026-04-23 14:29 | 58.39612 | -93.96044 | 15932 ft | 161 kts | 171° |
| 2026-04-23 14:29 | 58.38491 | -93.95700 | 16258 ft | 164 kts | 172° |
| 2026-04-23 14:29 | 58.37377 | -93.95361 | 16622 ft | 164 kts | 173° |
| 2026-04-23 14:29 | 58.36237 | -93.95012 | 16958 ft | 167 kts | 174° |
| 2026-04-23 14:30 | 58.35084 | -93.94663 | 17304 ft | 169 kts | 174° |
| 2026-04-23 14:30 | 58.33917 | -93.94309 | 17642 ft | 171 kts | 174° |
| 2026-04-23 14:30 | 58.32737 | -93.93950 | 17982 ft | 173 kts | 175° |
| 2026-04-23 14:30 | 58.31545 | -93.93587 | 18329 ft | 174 kts | 176° |
| 2026-04-23 14:31 | 58.30344 | -93.93222 | 18659 ft | 176 kts | 176° |
| 2026-04-23 14:31 | 58.29149 | -93.92859 | 18948 ft | 177 kts | 177° |
| 2026-04-23 14:31 | 58.27927 | -93.92488 | 19236 ft | 178 kts | 177° |
| 2026-04-23 14:31 | 58.26700 | -93.92116 | 19523 ft | 180 kts | 178° |
| 2026-04-23 14:32 | 58.25458 | -93.91740 | 19811 ft | 181 kts | 178° |
| 2026-04-23 14:32 | 58.24210 | -93.91362 | 20101 ft | 182 kts | 178° |
| 2026-04-23 14:32 | 58.22953 | -93.90981 | 20389 ft | 184 kts | 179° |
| 2026-04-23 14:32 | 58.21687 | -93.90599 | 20669 ft | 185 kts | 179° |
| 2026-04-23 14:33 | 58.20412 | -93.90214 | 20955 ft | 186 kts | 179° |
| 2026-04-23 14:33 | 58.19131 | -93.89827 | 21222 ft | 187 kts | 180° |
| 2026-04-23 14:33 | 58.17838 | -93.89438 | 21499 ft | 189 kts | 180° |
| 2026-04-23 14:33 | 58.16553 | -93.89051 | 21772 ft | 190 kts | 180° |
| 2026-04-23 14:34 | 58.15243 | -93.88656 | 22050 ft | 191 kts | 180° |
| 2026-04-23 14:34 | 58.13924 | -93.88258 | 22302 ft | 192 kts | 181° |
| 2026-04-23 14:34 | 58.12608 | -93.87860 | 22612 ft | 192 kts | 181° |
| 2026-04-23 14:34 | 58.11287 | -93.87465 | 22886 ft | 193 kts | 181° |
| 2026-04-23 14:35 | 58.09958 | -93.87067 | 23157 ft | 194 kts | 181° |
| 2026-04-23 14:35 | 58.08621 | -93.86665 | 23423 ft | 195 kts | 182° |
| 2026-04-23 14:35 | 58.07277 | -93.86262 | 23699 ft | 196 kts | 182° |
| 2026-04-23 14:35 | 58.05942 | -93.85862 | 23957 ft | 197 kts | 182° |
| 2026-04-23 14:36 | 58.04584 | -93.85456 | 24180 ft | 198 kts | 182° |
| 2026-04-23 14:36 | 58.03225 | -93.85048 | 24412 ft | 198 kts | 182° |
| 2026-04-23 14:36 | 58.01855 | -93.84639 | 24639 ft | 199 kts | 183° |
| 2026-04-23 14:36 | 58.00487 | -93.84231 | 24864 ft | 200 kts | 183° |
| 2026-04-23 14:37 | 57.99111 | -93.83820 | 25093 ft | 201 kts | 183° |
| 2026-04-23 14:37 | 57.97730 | -93.83408 | 25303 ft | 201 kts | 183° |
| 2026-04-23 14:37 | 57.96345 | -93.82995 | 25523 ft | 202 kts | 184° |
| 2026-04-23 14:37 | 57.94974 | -93.82587 | 25745 ft | 202 kts | 184° |
| 2026-04-23 14:38 | 57.93580 | -93.82173 | 25963 ft | 203 kts | 184° |
| 2026-04-23 14:38 | 57.92182 | -93.81756 | 26182 ft | 204 kts | 184° |
| 2026-04-23 14:38 | 57.90780 | -93.81340 | 26397 ft | 204 kts | 184° |
| 2026-04-23 14:38 | 57.89373 | -93.80923 | 26611 ft | 205 kts | 184° |
| 2026-04-23 14:39 | 57.87961 | -93.80504 | 26819 ft | 206 kts | 184° |
| 2026-04-23 14:39 | 57.86545 | -93.80085 | 27000 ft | 206 kts | 184° |
| 2026-04-23 14:39 | 57.85123 | -93.79664 | 27206 ft | 207 kts | 184° |
| 2026-04-23 14:39 | 57.83696 | -93.79241 | 27412 ft | 208 kts | 184° |
| 2026-04-23 14:40 | 57.82283 | -93.78823 | 27612 ft | 209 kts | 184° |
| 2026-04-23 14:40 | 57.80846 | -93.78399 | 27815 ft | 209 kts | 184° |
| 2026-04-23 14:40 | 57.79404 | -93.77973 | 28014 ft | 210 kts | 184° |
| 2026-04-23 14:40 | 57.77956 | -93.77545 | 28216 ft | 211 kts | 184° |
| 2026-04-23 14:41 | 57.76507 | -93.77120 | 28410 ft | 212 kts | 184° |
| 2026-04-23 14:41 | 57.75051 | -93.76690 | 28604 ft | 212 kts | 184° |
| 2026-04-23 14:41 | 57.73590 | -93.76261 | 28800 ft | 213 kts | 185° |
| 2026-04-23 14:41 | 57.72124 | -93.75830 | 28989 ft | 214 kts | 185° |
| 2026-04-23 14:42 | 57.70653 | -93.75398 | 29188 ft | 214 kts | 185° |
| 2026-04-23 14:42 | 57.69195 | -93.74971 | 29338 ft | 217 kts | 185° |
| 2026-04-23 14:42 | 57.67672 | -93.74538 | 29344 ft | 225 kts | 184° |
| 2026-04-23 14:42 | 57.66095 | -93.74081 | 29349 ft | 233 kts | 184° |
| 2026-04-23 14:43 | 57.64466 | -93.73601 | 29339 ft | 240 kts | 183° |
| 2026-04-23 14:43 | 57.62794 | -93.73107 | 29339 ft | 246 kts | 183° |
| 2026-04-23 14:43 | 57.61083 | -93.72606 | 29336 ft | 251 kts | 183° |
| 2026-04-23 14:43 | 57.59343 | -93.72099 | 29316 ft | 253 kts | 182° |
| 2026-04-23 14:44 | 57.58195 | -93.71766 | 29324 ft | 253 kts | 182° |
| 2026-04-23 14:44 | 57.56458 | -93.71252 | 29326 ft | 253 kts | 182° |
| 2026-04-23 14:44 | 57.54714 | -93.70739 | 29328 ft | 254 kts | 182° |
| 2026-04-23 14:44 | 57.52392 | -93.70068 | 29319 ft | 256 kts | 182° |
| 2026-04-23 14:45 | 57.51200 | -93.69722 | 29317 ft | 257 kts | 182° |
| 2026-04-23 14:45 | 57.48860 | -93.69041 | 29320 ft | 258 kts | 182° |
| 2026-04-23 14:45 | 57.47085 | -93.68526 | 29321 ft | 258 kts | 182° |
| 2026-04-23 14:45 | 57.45907 | -93.68184 | 29322 ft | 259 kts | 182° |
| 2026-04-23 14:46 | 57.44126 | -93.67669 | 29326 ft | 259 kts | 182° |
| 2026-04-23 14:46 | 57.42342 | -93.67153 | 29317 ft | 260 kts | 182° |
| 2026-04-23 14:46 | 57.40558 | -93.66637 | 29317 ft | 260 kts | 182° |
| 2026-04-23 14:46 | 57.38185 | -93.65953 | 29318 ft | 260 kts | 182° |
| 2026-04-23 14:47 | 57.36394 | -93.65436 | 29319 ft | 261 kts | 182° |
| 2026-04-23 14:47 | 57.35185 | -93.65088 | 29317 ft | 261 kts | 182° |
| 2026-04-23 14:47 | 57.33390 | -93.64572 | 29317 ft | 261 kts | 182° |
| 2026-04-23 14:47 | 57.31620 | -93.64064 | 29292 ft | 261 kts | 181° |
| 2026-04-23 14:48 | 57.29825 | -93.63546 | 29292 ft | 261 kts | 181° |
| 2026-04-23 14:48 | 57.28030 | -93.63031 | 29292 ft | 261 kts | 181° |
| 2026-04-23 14:48 | 57.26232 | -93.62516 | 29292 ft | 261 kts | 181° |
| 2026-04-23 14:48 | 57.24434 | -93.62001 | 29293 ft | 262 kts | 181° |
| 2026-04-23 14:49 | 57.22634 | -93.61486 | 29296 ft | 262 kts | 181° |
| 2026-04-23 14:49 | 57.20832 | -93.60972 | 29285 ft | 262 kts | 181° |
| 2026-04-23 14:49 | 57.19030 | -93.60456 | 29286 ft | 262 kts | 181° |
| 2026-04-23 14:49 | 57.17230 | -93.59943 | 29286 ft | 262 kts | 181° |
| 2026-04-23 14:50 | 57.15451 | -93.59436 | 29285 ft | 262 kts | 181° |
| 2026-04-23 14:50 | 57.13647 | -93.58922 | 29285 ft | 262 kts | 181° |
| 2026-04-23 14:50 | 57.11843 | -93.58409 | 29285 ft | 262 kts | 181° |
| 2026-04-23 14:50 | 57.10038 | -93.57896 | 29272 ft | 262 kts | 181° |
| 2026-04-23 14:51 | 57.08233 | -93.57384 | 29272 ft | 262 kts | 181° |
| 2026-04-23 14:51 | 57.06428 | -93.56871 | 29272 ft | 262 kts | 181° |
| 2026-04-23 14:51 | 57.04628 | -93.56363 | 29271 ft | 261 kts | 181° |
| 2026-04-23 14:51 | 57.02833 | -93.55853 | 29270 ft | 261 kts | 181° |
| 2026-04-23 14:52 | 57.01062 | -93.55352 | 29271 ft | 261 kts | 181° |
| 2026-04-23 14:52 | 56.99267 | -93.54846 | 29259 ft | 261 kts | 181° |
| 2026-04-23 14:52 | 56.97472 | -93.54339 | 29259 ft | 261 kts | 181° |
| 2026-04-23 14:52 | 56.95676 | -93.53833 | 29259 ft | 261 kts | 181° |
| 2026-04-23 14:53 | 56.93881 | -93.53328 | 29258 ft | 261 kts | 181° |
| 2026-04-23 14:53 | 56.92086 | -93.52823 | 29258 ft | 261 kts | 181° |
| 2026-04-23 14:53 | 56.90295 | -93.52318 | 29258 ft | 261 kts | 181° |
| 2026-04-23 14:53 | 56.88500 | -93.51815 | 29247 ft | 261 kts | 181° |
| 2026-04-23 14:54 | 56.86705 | -93.51303 | 29250 ft | 262 kts | 181° |
| 2026-04-23 14:54 | 56.84911 | -93.50751 | 29252 ft | 260 kts | 182° |
| 2026-04-23 14:54 | 56.83141 | -93.50321 | 29252 ft | 260 kts | 182° |
| 2026-04-23 14:54 | 56.81344 | -93.49836 | 29255 ft | 262 kts | 181° |
| 2026-04-23 14:55 | 56.79543 | -93.49311 | 29254 ft | 262 kts | 181° |
| 2026-04-23 14:55 | 56.77745 | -93.48799 | 29247 ft | 261 kts | 182° |
| 2026-04-23 14:55 | 56.75950 | -93.48302 | 29247 ft | 261 kts | 182° |
| 2026-04-23 14:55 | 56.74154 | -93.47804 | 29243 ft | 261 kts | 182° |
| 2026-04-23 14:56 | 56.72358 | -93.47303 | 29244 ft | 261 kts | 182° |
| 2026-04-23 14:56 | 56.70562 | -93.46804 | 29244 ft | 261 kts | 182° |
| 2026-04-23 14:56 | 56.68766 | -93.46304 | 29244 ft | 261 kts | 182° |
| 2026-04-23 14:56 | 56.66974 | -93.45807 | 29221 ft | 261 kts | 182° |
| 2026-04-23 14:57 | 56.65202 | -93.45316 | 29227 ft | 261 kts | 182° |
| 2026-04-23 14:57 | 56.63406 | -93.44818 | 29231 ft | 261 kts | 182° |
| 2026-04-23 14:57 | 56.61610 | -93.44321 | 29233 ft | 261 kts | 182° |
| 2026-04-23 14:57 | 56.59814 | -93.43824 | 29231 ft | 261 kts | 182° |
| 2026-04-23 14:58 | 56.58018 | -93.43328 | 29217 ft | 261 kts | 182° |
| 2026-04-23 14:58 | 56.56222 | -93.42833 | 29217 ft | 261 kts | 182° |
| 2026-04-23 14:58 | 56.54426 | -93.42337 | 29217 ft | 261 kts | 182° |
| 2026-04-23 14:58 | 56.52631 | -93.41842 | 29189 ft | 261 kts | 182° |
| 2026-04-23 14:59 | 56.50868 | -93.41355 | 29220 ft | 259 kts | 182° |
| 2026-04-23 14:59 | 56.49086 | -93.40867 | 29220 ft | 259 kts | 182° |
| 2026-04-23 14:59 | 56.47307 | -93.40378 | 29212 ft | 259 kts | 182° |
| 2026-04-23 14:59 | 56.45529 | -93.39891 | 29211 ft | 258 kts | 182° |
| 2026-04-23 15:00 | 56.43756 | -93.39404 | 29209 ft | 258 kts | 182° |
| 2026-04-23 15:00 | 56.41982 | -93.38921 | 29212 ft | 258 kts | 182° |
| 2026-04-23 15:00 | 56.40209 | -93.38434 | 29212 ft | 258 kts | 182° |
| 2026-04-23 15:00 | 56.38437 | -93.37948 | 29211 ft | 258 kts | 182° |
| 2026-04-23 15:01 | 56.36665 | -93.37465 | 29201 ft | 257 kts | 182° |
| 2026-04-23 15:01 | 56.34894 | -93.36982 | 29201 ft | 257 kts | 182° |
| 2026-04-23 15:01 | 56.33146 | -93.36506 | 29201 ft | 257 kts | 182° |
| 2026-04-23 15:01 | 56.31375 | -93.36023 | 29200 ft | 257 kts | 182° |
| 2026-04-23 15:02 | 56.29604 | -93.35542 | 29200 ft | 257 kts | 182° |
| 2026-04-23 15:02 | 56.27833 | -93.35061 | 29201 ft | 257 kts | 182° |
| 2026-04-23 15:02 | 56.26061 | -93.34579 | 29179 ft | 257 kts | 182° |
| 2026-04-23 15:02 | 56.24295 | -93.34098 | 29187 ft | 256 kts | 182° |
| 2026-04-23 15:03 | 56.22532 | -93.33622 | 29186 ft | 256 kts | 182° |
| 2026-04-23 15:03 | 56.20771 | -93.33145 | 29187 ft | 256 kts | 182° |
| 2026-04-23 15:03 | 56.19012 | -93.32669 | 29187 ft | 256 kts | 182° |
| 2026-04-23 15:03 | 56.17281 | -93.32201 | 29186 ft | 255 kts | 182° |
| 2026-04-23 15:04 | 56.15524 | -93.31726 | 29186 ft | 255 kts | 182° |
| 2026-04-23 15:04 | 56.13768 | -93.31252 | 29186 ft | 255 kts | 182° |
| 2026-04-23 15:04 | 56.12011 | -93.30779 | 29185 ft | 255 kts | 182° |
| 2026-04-23 15:04 | 56.10255 | -93.30306 | 29185 ft | 255 kts | 182° |
| 2026-04-23 15:05 | 56.08500 | -93.29833 | 29185 ft | 255 kts | 182° |
| 2026-04-23 15:05 | 56.06745 | -93.29362 | 29183 ft | 255 kts | 182° |
| 2026-04-23 15:05 | 56.05013 | -93.28897 | 29174 ft | 255 kts | 182° |
| 2026-04-23 15:05 | 56.03257 | -93.28426 | 29174 ft | 255 kts | 182° |
| 2026-04-23 15:06 | 56.01500 | -93.27954 | 29174 ft | 255 kts | 182° |
| 2026-04-23 15:06 | 55.99744 | -93.27483 | 29173 ft | 255 kts | 182° |
| 2026-04-23 15:06 | 55.97990 | -93.27014 | 29172 ft | 255 kts | 182° |
| 2026-04-23 15:06 | 55.96240 | -93.26547 | 29175 ft | 255 kts | 182° |
| 2026-04-23 15:07 | 55.94484 | -93.26078 | 29164 ft | 255 kts | 182° |
| 2026-04-23 15:07 | 55.92725 | -93.25608 | 29162 ft | 256 kts | 182° |
| 2026-04-23 15:07 | 55.90964 | -93.25138 | 29162 ft | 256 kts | 182° |
| 2026-04-23 15:07 | 55.89204 | -93.24669 | 29164 ft | 256 kts | 182° |
| 2026-04-23 15:08 | 55.87468 | -93.24207 | 29161 ft | 256 kts | 182° |
| 2026-04-23 15:08 | 55.85709 | -93.23741 | 29162 ft | 256 kts | 182° |
| 2026-04-23 15:08 | 55.83950 | -93.23273 | 29149 ft | 256 kts | 182° |
| 2026-04-23 15:09 | 55.80434 | -93.22339 | 29153 ft | 255 kts | 182° |
| 2026-04-23 15:09 | 55.78678 | -93.21874 | 29153 ft | 255 kts | 182° |
| 2026-04-23 15:09 | 55.76922 | -93.21410 | 29152 ft | 255 kts | 182° |
| 2026-04-23 15:09 | 55.75166 | -93.20945 | 29152 ft | 255 kts | 182° |
| 2026-04-23 15:10 | 55.73417 | -93.20482 | 29130 ft | 253 kts | 183° |
| 2026-04-23 15:10 | 55.71699 | -93.20028 | 29142 ft | 253 kts | 183° |
| 2026-04-23 15:10 | 55.69961 | -93.19571 | 29143 ft | 252 kts | 183° |
| 2026-04-23 15:10 | 55.68226 | -93.19114 | 29142 ft | 252 kts | 183° |
| 2026-04-23 15:11 | 55.66493 | -93.18658 | 29133 ft | 252 kts | 183° |
| 2026-04-23 15:11 | 55.64762 | -93.18202 | 29144 ft | 251 kts | 183° |
| 2026-04-23 15:11 | 55.63032 | -93.17747 | 29133 ft | 251 kts | 183° |
| 2026-04-23 15:11 | 55.61304 | -93.17294 | 29133 ft | 251 kts | 183° |
| 2026-04-23 15:12 | 55.59577 | -93.16841 | 29130 ft | 251 kts | 183° |
| 2026-04-23 15:12 | 55.57850 | -93.16388 | 29129 ft | 251 kts | 183° |
| 2026-04-23 15:12 | 55.56147 | -93.15942 | 29129 ft | 251 kts | 183° |
| 2026-04-23 15:12 | 55.54422 | -93.15490 | 29129 ft | 251 kts | 183° |
| 2026-04-23 15:13 | 55.52697 | -93.15040 | 29115 ft | 250 kts | 183° |
| 2026-04-23 15:13 | 55.50974 | -93.14589 | 29117 ft | 250 kts | 183° |
| 2026-04-23 15:13 | 55.49254 | -93.14141 | 29117 ft | 250 kts | 183° |
| 2026-04-23 15:13 | 55.47533 | -93.13691 | 29121 ft | 249 kts | 183° |
| 2026-04-23 15:14 | 55.45822 | -93.13245 | 29116 ft | 248 kts | 183° |
| 2026-04-23 15:14 | 55.44115 | -93.12801 | 29116 ft | 248 kts | 183° |
| 2026-04-23 15:14 | 55.42412 | -93.12359 | 29102 ft | 247 kts | 183° |
| 2026-04-23 15:14 | 55.40712 | -93.11918 | 29094 ft | 247 kts | 183° |
| 2026-04-23 15:15 | 55.39037 | -93.11482 | 29104 ft | 246 kts | 183° |
| 2026-04-23 15:15 | 55.37341 | -93.11042 | 29104 ft | 246 kts | 183° |
| 2026-04-23 15:15 | 55.35647 | -93.10603 | 29103 ft | 246 kts | 183° |
| 2026-04-23 15:15 | 55.33955 | -93.10165 | 29104 ft | 246 kts | 183° |
| 2026-04-23 15:16 | 55.32264 | -93.09729 | 29087 ft | 246 kts | 183° |
| 2026-04-23 15:16 | 55.30574 | -93.09292 | 29080 ft | 245 kts | 183° |
| 2026-04-23 15:16 | 55.28884 | -93.08854 | 29105 ft | 245 kts | 183° |
| 2026-04-23 15:16 | 55.27198 | -93.08420 | 29091 ft | 245 kts | 183° |
| 2026-04-23 15:17 | 55.25508 | -93.07984 | 29107 ft | 245 kts | 183° |
| 2026-04-23 15:17 | 55.23842 | -93.07555 | 29107 ft | 245 kts | 183° |
| 2026-04-23 15:17 | 55.22154 | -93.07121 | 29081 ft | 244 kts | 182° |
| 2026-04-23 15:17 | 55.20474 | -93.06688 | 29091 ft | 244 kts | 182° |
| 2026-04-23 15:18 | 55.18793 | -93.06256 | 29094 ft | 244 kts | 182° |
| 2026-04-23 15:18 | 55.17113 | -93.05825 | 29093 ft | 244 kts | 182° |
| 2026-04-23 15:18 | 55.15432 | -93.05395 | 29093 ft | 244 kts | 182° |
| 2026-04-23 15:18 | 55.13752 | -93.04964 | 29093 ft | 244 kts | 182° |
| 2026-04-23 15:19 | 55.12072 | -93.04534 | 29079 ft | 244 kts | 182° |
| 2026-04-23 15:19 | 55.10415 | -93.04110 | 29079 ft | 244 kts | 182° |
| 2026-04-23 15:19 | 55.08735 | -93.03680 | 29079 ft | 244 kts | 182° |
| 2026-04-23 15:19 | 55.07055 | -93.03251 | 29079 ft | 244 kts | 182° |
| 2026-04-23 15:20 | 55.05380 | -93.02825 | 29078 ft | 243 kts | 182° |
| 2026-04-23 15:20 | 55.03708 | -93.02401 | 29077 ft | 241 kts | 182° |
| 2026-04-23 15:20 | 55.02053 | -93.01975 | 29063 ft | 239 kts | 182° |
| 2026-04-23 15:20 | 55.00414 | -93.01555 | 29063 ft | 238 kts | 182° |
| 2026-04-23 15:21 | 54.98782 | -93.01141 | 29067 ft | 236 kts | 182° |
| 2026-04-23 15:21 | 54.97158 | -93.00732 | 29064 ft | 235 kts | 183° |
| 2026-04-23 15:21 | 54.95565 | -93.00331 | 29065 ft | 234 kts | 181° |
| 2026-04-23 15:21 | 54.93955 | -92.99913 | 29063 ft | 234 kts | 181° |
| 2026-04-23 15:22 | 54.92348 | -92.99506 | 29064 ft | 233 kts | 182° |
| 2026-04-23 15:22 | 54.90744 | -92.99103 | 29049 ft | 233 kts | 182° |
| 2026-04-23 15:22 | 54.89142 | -92.98698 | 29050 ft | 232 kts | 182° |
| 2026-04-23 15:22 | 54.87542 | -92.98294 | 29050 ft | 232 kts | 182° |
| 2026-04-23 15:23 | 54.85943 | -92.97890 | 29052 ft | 232 kts | 182° |
| 2026-04-23 15:23 | 54.84366 | -92.97491 | 29051 ft | 232 kts | 182° |
| 2026-04-23 15:23 | 54.82770 | -92.97090 | 29053 ft | 232 kts | 182° |
| 2026-04-23 15:23 | 54.81174 | -92.96687 | 29039 ft | 232 kts | 182° |
| 2026-04-23 15:24 | 54.79578 | -92.96285 | 29040 ft | 232 kts | 182° |
| 2026-04-23 15:24 | 54.77986 | -92.95884 | 29039 ft | 232 kts | 182° |
| 2026-04-23 15:24 | 54.76390 | -92.95483 | 29040 ft | 232 kts | 182° |
| 2026-04-23 15:24 | 54.74792 | -92.95082 | 29040 ft | 232 kts | 182° |
| 2026-04-23 15:25 | 54.73193 | -92.94681 | 29037 ft | 232 kts | 182° |
| 2026-04-23 15:25 | 54.71594 | -92.94279 | 29008 ft | 232 kts | 180° |
| 2026-04-23 15:25 | 54.70020 | -92.93876 | 29030 ft | 232 kts | 180° |
| 2026-04-23 15:25 | 54.68422 | -92.93483 | 29029 ft | 232 kts | 180° |
| 2026-04-23 15:26 | 54.66823 | -92.93085 | 29029 ft | 232 kts | 180° |
| 2026-04-23 15:26 | 54.65222 | -92.92684 | 29029 ft | 233 kts | 180° |
| 2026-04-23 15:26 | 54.63619 | -92.92283 | 29029 ft | 233 kts | 180° |
| 2026-04-23 15:26 | 54.62016 | -92.91882 | 29029 ft | 233 kts | 180° |
| 2026-04-23 15:27 | 54.60412 | -92.91483 | 29016 ft | 233 kts | 180° |
| 2026-04-23 15:27 | 54.58807 | -92.91082 | 29016 ft | 233 kts | 180° |
| 2026-04-23 15:27 | 54.57205 | -92.90683 | 29016 ft | 233 kts | 180° |
| 2026-04-23 15:27 | 54.55599 | -92.90283 | 29017 ft | 233 kts | 180° |
| 2026-04-23 15:28 | 54.54013 | -92.89890 | 29016 ft | 233 kts | 180° |
| 2026-04-23 15:28 | 54.52406 | -92.89490 | 29016 ft | 233 kts | 180° |
| 2026-04-23 15:28 | 54.50798 | -92.89091 | 29003 ft | 233 kts | 180° |
| 2026-04-23 15:28 | 54.49191 | -92.88692 | 29003 ft | 233 kts | 180° |
| 2026-04-23 15:29 | 54.47583 | -92.88293 | 29003 ft | 233 kts | 180° |
| 2026-04-23 15:29 | 54.45976 | -92.87896 | 28996 ft | 233 kts | 180° |
| 2026-04-23 15:29 | 54.44370 | -92.87497 | 29003 ft | 233 kts | 180° |
| 2026-04-23 15:29 | 54.42783 | -92.87105 | 29002 ft | 234 kts | 180° |
| 2026-04-23 15:30 | 54.41174 | -92.86707 | 28988 ft | 234 kts | 180° |
| 2026-04-23 15:30 | 54.39563 | -92.86309 | 28988 ft | 234 kts | 180° |
| 2026-04-23 15:30 | 54.37950 | -92.85912 | 28988 ft | 234 kts | 180° |
| 2026-04-23 15:30 | 54.36341 | -92.85515 | 28989 ft | 234 kts | 180° |
| 2026-04-23 15:31 | 54.34726 | -92.85117 | 28993 ft | 234 kts | 180° |
| 2026-04-23 15:31 | 54.33110 | -92.84719 | 28993 ft | 235 kts | 180° |
| 2026-04-23 15:31 | 54.31494 | -92.84321 | 28993 ft | 235 kts | 180° |
| 2026-04-23 15:31 | 54.29877 | -92.83924 | 28985 ft | 235 kts | 180° |
| 2026-04-23 15:32 | 54.28259 | -92.83526 | 28982 ft | 235 kts | 180° |
| 2026-04-23 15:32 | 54.26663 | -92.83135 | 28982 ft | 235 kts | 180° |
| 2026-04-23 15:32 | 54.25045 | -92.82738 | 28982 ft | 235 kts | 180° |
| 2026-04-23 15:32 | 54.23426 | -92.82342 | 28982 ft | 235 kts | 180° |
| 2026-04-23 15:33 | 54.21807 | -92.81945 | 28979 ft | 235 kts | 180° |
| 2026-04-23 15:33 | 54.20189 | -92.81552 | 28968 ft | 235 kts | 179° |
| 2026-04-23 15:33 | 54.18571 | -92.81154 | 28967 ft | 235 kts | 179° |
| 2026-04-23 15:33 | 54.16950 | -92.80757 | 28966 ft | 236 kts | 179° |
| 2026-04-23 15:34 | 54.15326 | -92.80362 | 28967 ft | 236 kts | 179° |
| 2026-04-23 15:34 | 54.13726 | -92.79972 | 28967 ft | 236 kts | 179° |
| 2026-04-23 15:34 | 54.12099 | -92.79575 | 28967 ft | 236 kts | 179° |
| 2026-04-23 15:34 | 54.10470 | -92.79179 | 28957 ft | 236 kts | 179° |
| 2026-04-23 15:35 | 54.08841 | -92.78783 | 28955 ft | 237 kts | 179° |
| 2026-04-23 15:35 | 54.07211 | -92.78386 | 28955 ft | 237 kts | 179° |
| 2026-04-23 15:35 | 54.05579 | -92.77990 | 28955 ft | 237 kts | 179° |
| 2026-04-23 15:35 | 54.03947 | -92.77593 | 28956 ft | 237 kts | 179° |
| 2026-04-23 15:36 | 54.02314 | -92.77198 | 28955 ft | 237 kts | 179° |
| 2026-04-23 15:36 | 54.00701 | -92.76807 | 28942 ft | 237 kts | 179° |
| 2026-04-23 15:36 | 53.99065 | -92.76411 | 28942 ft | 237 kts | 179° |
| 2026-04-23 15:36 | 53.97429 | -92.76015 | 28942 ft | 237 kts | 179° |
| 2026-04-23 15:37 | 53.95793 | -92.75620 | 28940 ft | 237 kts | 179° |
| 2026-04-23 15:37 | 53.94158 | -92.75226 | 28940 ft | 238 kts | 179° |
| 2026-04-23 15:37 | 53.92521 | -92.74830 | 28940 ft | 238 kts | 179° |
| 2026-04-23 15:37 | 53.90885 | -92.74436 | 28926 ft | 238 kts | 179° |
| 2026-04-23 15:38 | 53.89252 | -92.74042 | 28933 ft | 237 kts | 179° |
| 2026-04-23 15:38 | 53.87637 | -92.73653 | 28932 ft | 238 kts | 179° |
| 2026-04-23 15:38 | 53.86000 | -92.73259 | 28932 ft | 238 kts | 179° |
| 2026-04-23 15:38 | 53.84364 | -92.72866 | 28932 ft | 237 kts | 179° |
| 2026-04-23 15:39 | 53.82728 | -92.72473 | 28931 ft | 237 kts | 179° |
| 2026-04-23 15:39 | 53.81092 | -92.72080 | 28920 ft | 237 kts | 179° |
| 2026-04-23 15:39 | 53.79457 | -92.71688 | 28920 ft | 237 kts | 179° |
| 2026-04-23 15:39 | 53.77822 | -92.71297 | 28920 ft | 237 kts | 179° |
| 2026-04-23 15:40 | 53.76187 | -92.70905 | 28941 ft | 237 kts | 179° |